DAL1837 MMSD-KSEA
Flight info
| Callsign | DAL1837 |
|---|---|
| Flight time | N/A |
| Altitude | 32000 |
| Route | ANEGO1A ANEGO UL312 SQN DCT ZONKY/N0468F340 DCT EIREE DCT LAX J5 EHF DCT SHIMR DCT LKV HAWKZ8 |
| Aircraft | B738/M-SDE2E3FGHIRWXY/LB1 |
Departure
| Time | 2026-04-30 20:36 |
|---|---|
| Airport | Los Cabos International Airport (MMSD) |
Arrival
| Time | N/A |
|---|---|
| Airport | Seattle–Tacoma International Airport (KSEA) |
| Time | Latitude | Longitude | Altitude | Speed | Heading |
|---|---|---|---|---|---|
| 2026-04-30 20:16 | 23.15639 | -109.71774 | 366 ft | 0 kts | 85° |
| 2026-04-30 20:22 | 23.15639 | -109.71777 | 369 ft | 2 kts | 85° |
| 2026-04-30 20:22 | 23.15637 | -109.71795 | 366 ft | 2 kts | 84° |
| 2026-04-30 20:23 | 23.15636 | -109.71812 | 366 ft | 2 kts | 84° |
| 2026-04-30 20:23 | 23.15634 | -109.71830 | 367 ft | 2 kts | 65° |
| 2026-04-30 20:23 | 23.15625 | -109.71841 | 367 ft | 1 kts | 1° |
| 2026-04-30 20:23 | 23.15619 | -109.71841 | 368 ft | 0 kts | 354° |
| 2026-04-30 20:31 | 23.15620 | -109.71841 | 368 ft | 1 kts | 354° |
| 2026-04-30 20:32 | 23.15772 | -109.71850 | 369 ft | 15 kts | 354° |
| 2026-04-30 20:32 | 23.15945 | -109.71952 | 373 ft | 17 kts | 350° |
| 2026-04-30 20:33 | 23.16076 | -109.71968 | 376 ft | 21 kts | 355° |
| 2026-04-30 20:33 | 23.16402 | -109.72004 | 383 ft | 23 kts | 353° |
| 2026-04-30 20:33 | 23.16545 | -109.72029 | 386 ft | 13 kts | 328° |
| 2026-04-30 20:34 | 23.16538 | -109.72203 | 388 ft | 12 kts | 244° |
| 2026-04-30 20:34 | 23.16481 | -109.72222 | 386 ft | 0 kts | 174° |
| 2026-04-30 20:35 | 23.16350 | -109.72207 | 383 ft | 53 kts | 174° |
| 2026-04-30 20:36 | 23.15739 | -109.72137 | 369 ft | 122 kts | 174° |
| 2026-04-30 20:36 | 23.14706 | -109.71995 | 396 ft | 173 kts | 170° |
| 2026-04-30 20:36 | 23.12163 | -109.71671 | 1771 ft | 185 kts | 174° |
| 2026-04-30 20:37 | 23.10850 | -109.71535 | 2449 ft | 198 kts | 174° |
| 2026-04-30 20:37 | 23.09389 | -109.71382 | 2669 ft | 222 kts | 174° |
| 2026-04-30 20:37 | 23.07780 | -109.71213 | 2864 ft | 241 kts | 174° |
| 2026-04-30 20:37 | 23.06097 | -109.71034 | 3288 ft | 250 kts | 175° |
| 2026-04-30 20:38 | 23.04366 | -109.71064 | 3850 ft | 249 kts | 197° |
| 2026-04-30 20:38 | 23.02882 | -109.71975 | 4509 ft | 248 kts | 227° |
| 2026-04-30 20:38 | 23.02027 | -109.73576 | 5179 ft | 245 kts | 257° |
| 2026-04-30 20:39 | 23.02774 | -109.77064 | 6281 ft | 249 kts | 304° |
| 2026-04-30 20:39 | 23.03836 | -109.78543 | 6856 ft | 250 kts | 307° |
| 2026-04-30 20:39 | 23.04951 | -109.80003 | 7405 ft | 252 kts | 307° |
| 2026-04-30 20:40 | 23.07192 | -109.82948 | 8526 ft | 255 kts | 306° |
| 2026-04-30 20:40 | 23.08347 | -109.84497 | 8921 ft | 272 kts | 305° |
| 2026-04-30 20:40 | 23.09557 | -109.86123 | 9549 ft | 278 kts | 304° |
| 2026-04-30 20:41 | 23.12054 | -109.89498 | 10339 ft | 304 kts | 306° |
| 2026-04-30 20:41 | 23.13712 | -109.91063 | 10528 ft | 331 kts | 322° |
| 2026-04-30 20:41 | 23.15737 | -109.92424 | 10683 ft | 351 kts | 324° |
| 2026-04-30 20:41 | 23.17862 | -109.93799 | 10805 ft | 369 kts | 325° |
| 2026-04-30 20:42 | 23.20117 | -109.95256 | 10931 ft | 384 kts | 325° |
| 2026-04-30 20:42 | 23.22440 | -109.96765 | 11238 ft | 393 kts | 324° |
| 2026-04-30 20:42 | 23.27163 | -109.99857 | 12204 ft | 399 kts | 324° |
| 2026-04-30 20:43 | 23.29552 | -110.01438 | 12608 ft | 403 kts | 324° |
| 2026-04-30 20:43 | 23.31962 | -110.03039 | 12992 ft | 407 kts | 324° |
| 2026-04-30 20:43 | 23.34386 | -110.04651 | 13425 ft | 410 kts | 323° |
| 2026-04-30 20:44 | 23.39259 | -110.07894 | 14188 ft | 415 kts | 323° |
| 2026-04-30 20:44 | 23.41738 | -110.09545 | 14570 ft | 418 kts | 323° |
| 2026-04-30 20:44 | 23.46713 | -110.12860 | 15309 ft | 422 kts | 323° |
| 2026-04-30 20:45 | 23.51763 | -110.16229 | 15992 ft | 428 kts | 323° |
| 2026-04-30 20:45 | 23.54257 | -110.17983 | 16346 ft | 425 kts | 316° |
| 2026-04-30 20:45 | 23.56439 | -110.20148 | 16683 ft | 422 kts | 309° |
| 2026-04-30 20:46 | 23.62605 | -110.27064 | 17631 ft | 429 kts | 309° |
| 2026-04-30 20:46 | 23.64704 | -110.29391 | 17994 ft | 430 kts | 309° |
| 2026-04-30 20:47 | 23.68954 | -110.34038 | 18588 ft | 434 kts | 309° |
| 2026-04-30 20:47 | 23.71102 | -110.36370 | 18905 ft | 435 kts | 309° |
| 2026-04-30 20:48 | 23.75399 | -110.41034 | 19489 ft | 437 kts | 309° |
| 2026-04-30 20:48 | 23.77558 | -110.43380 | 19772 ft | 438 kts | 309° |
| 2026-04-30 20:48 | 23.79694 | -110.45704 | 20057 ft | 439 kts | 309° |
| 2026-04-30 20:48 | 23.81860 | -110.48062 | 20334 ft | 440 kts | 309° |
| 2026-04-30 20:49 | 23.84038 | -110.50434 | 20599 ft | 441 kts | 309° |
| 2026-04-30 20:49 | 23.86216 | -110.52808 | 20861 ft | 442 kts | 309° |
| 2026-04-30 20:49 | 23.88397 | -110.55186 | 21115 ft | 443 kts | 309° |
| 2026-04-30 20:50 | 23.92942 | -110.59804 | 21609 ft | 449 kts | 313° |
| 2026-04-30 20:50 | 23.95341 | -110.62013 | 21850 ft | 451 kts | 314° |
| 2026-04-30 20:50 | 23.97770 | -110.64211 | 22089 ft | 453 kts | 314° |
| 2026-04-30 20:50 | 24.00197 | -110.66409 | 22310 ft | 454 kts | 313° |
| 2026-04-30 20:51 | 24.02594 | -110.68594 | 22524 ft | 455 kts | 313° |
| 2026-04-30 20:51 | 24.07443 | -110.73063 | 22971 ft | 456 kts | 313° |
| 2026-04-30 20:51 | 24.09873 | -110.75319 | 23178 ft | 457 kts | 313° |
| 2026-04-30 20:52 | 24.12301 | -110.77579 | 23377 ft | 459 kts | 312° |
| 2026-04-30 20:52 | 24.14736 | -110.79849 | 23543 ft | 460 kts | 312° |
| 2026-04-30 20:52 | 24.18789 | -110.83629 | 23817 ft | 461 kts | 312° |
| 2026-04-30 20:53 | 24.22044 | -110.86668 | 23998 ft | 463 kts | 312° |
| 2026-04-30 20:53 | 24.24495 | -110.88956 | 24147 ft | 464 kts | 312° |
| 2026-04-30 20:53 | 24.26954 | -110.91252 | 24290 ft | 465 kts | 312° |
| 2026-04-30 20:54 | 24.31887 | -110.95862 | 24582 ft | 467 kts | 312° |
| 2026-04-30 20:54 | 24.34362 | -110.98177 | 24726 ft | 468 kts | 312° |
| 2026-04-30 20:54 | 24.36841 | -111.00497 | 24865 ft | 469 kts | 312° |
| 2026-04-30 20:55 | 24.41813 | -111.05155 | 25134 ft | 471 kts | 312° |
| 2026-04-30 20:55 | 24.44310 | -111.07495 | 25266 ft | 472 kts | 312° |
| 2026-04-30 20:55 | 24.46808 | -111.09838 | 25412 ft | 472 kts | 312° |
| 2026-04-30 20:56 | 24.51819 | -111.14542 | 25675 ft | 474 kts | 312° |
| 2026-04-30 20:56 | 24.54291 | -111.16863 | 25889 ft | 473 kts | 312° |
| 2026-04-30 20:56 | 24.59269 | -111.21539 | 26365 ft | 470 kts | 312° |
| 2026-04-30 20:57 | 24.61755 | -111.23878 | 26547 ft | 470 kts | 312° |
| 2026-04-30 20:57 | 24.64242 | -111.26221 | 26757 ft | 470 kts | 311° |
| 2026-04-30 20:57 | 24.66725 | -111.28560 | 26966 ft | 469 kts | 311° |
| 2026-04-30 20:58 | 24.70841 | -111.32439 | 27367 ft | 467 kts | 311° |
| 2026-04-30 20:58 | 24.73308 | -111.34767 | 27584 ft | 467 kts | 311° |
| 2026-04-30 20:58 | 24.75771 | -111.37092 | 27802 ft | 467 kts | 311° |
| 2026-04-30 20:58 | 24.78230 | -111.39415 | 28024 ft | 466 kts | 311° |
| 2026-04-30 20:59 | 24.83931 | -111.44802 | 28622 ft | 463 kts | 311° |
| 2026-04-30 20:59 | 24.85582 | -111.46365 | 28772 ft | 463 kts | 311° |
| 2026-04-30 21:00 | 24.90465 | -111.50987 | 29292 ft | 461 kts | 311° |
| 2026-04-30 21:00 | 24.95291 | -111.55560 | 29796 ft | 460 kts | 311° |
| 2026-04-30 21:01 | 25.00131 | -111.60153 | 30272 ft | 458 kts | 311° |
| 2026-04-30 21:01 | 25.02544 | -111.62444 | 30502 ft | 457 kts | 311° |
| 2026-04-30 21:01 | 25.07353 | -111.67014 | 30966 ft | 455 kts | 310° |
| 2026-04-30 21:02 | 25.09744 | -111.69288 | 31223 ft | 453 kts | 310° |
| 2026-04-30 21:02 | 25.12124 | -111.71552 | 31502 ft | 451 kts | 310° |
| 2026-04-30 21:02 | 25.14500 | -111.73814 | 31735 ft | 450 kts | 310° |
| 2026-04-30 21:02 | 25.16870 | -111.76073 | 31907 ft | 450 kts | 310° |
| 2026-04-30 21:03 | 25.19241 | -111.78336 | 31891 ft | 452 kts | 310° |
| 2026-04-30 21:03 | 25.23987 | -111.82864 | 31919 ft | 449 kts | 310° |
| 2026-04-30 21:04 | 25.28710 | -111.87372 | 31916 ft | 447 kts | 310° |
| 2026-04-30 21:04 | 25.36293 | -111.93533 | 31915 ft | 453 kts | 316° |
| 2026-04-30 21:05 | 25.41470 | -111.97417 | 31919 ft | 452 kts | 316° |
| 2026-04-30 21:05 | 25.46668 | -112.01346 | 31921 ft | 452 kts | 316° |
| 2026-04-30 21:06 | 25.51863 | -112.05304 | 31922 ft | 453 kts | 316° |
| 2026-04-30 21:06 | 25.57062 | -112.09279 | 31912 ft | 454 kts | 315° |
| 2026-04-30 21:07 | 25.62272 | -112.13269 | 31915 ft | 456 kts | 315° |
| 2026-04-30 21:07 | 25.67467 | -112.17249 | 31923 ft | 457 kts | 315° |
| 2026-04-30 21:08 | 25.72709 | -112.21268 | 31920 ft | 458 kts | 315° |
| 2026-04-30 21:08 | 25.77953 | -112.25293 | 31920 ft | 458 kts | 315° |
| 2026-04-30 21:09 | 25.83207 | -112.29330 | 31912 ft | 459 kts | 315° |
| 2026-04-30 21:09 | 25.88423 | -112.33342 | 31909 ft | 459 kts | 315° |
| 2026-04-30 21:10 | 25.93661 | -112.37376 | 31908 ft | 458 kts | 315° |
| 2026-04-30 21:10 | 25.98897 | -112.41413 | 31906 ft | 457 kts | 315° |
| 2026-04-30 21:11 | 26.04123 | -112.45446 | 31906 ft | 456 kts | 315° |
| 2026-04-30 21:11 | 26.09332 | -112.49470 | 31910 ft | 455 kts | 314° |
| 2026-04-30 21:12 | 26.14520 | -112.53484 | 31915 ft | 454 kts | 314° |
| 2026-04-30 21:12 | 26.19703 | -112.57498 | 31915 ft | 453 kts | 314° |
| 2026-04-30 21:13 | 26.24868 | -112.61503 | 31918 ft | 452 kts | 314° |
| 2026-04-30 21:13 | 26.29983 | -112.65473 | 31916 ft | 451 kts | 314° |
| 2026-04-30 21:14 | 26.35130 | -112.69473 | 31919 ft | 450 kts | 314° |
| 2026-04-30 21:14 | 26.40268 | -112.73471 | 31920 ft | 451 kts | 313° |
| 2026-04-30 21:15 | 26.45409 | -112.77475 | 31923 ft | 451 kts | 313° |
| 2026-04-30 21:15 | 26.50555 | -112.81488 | 31936 ft | 451 kts | 313° |
| 2026-04-30 21:16 | 26.55710 | -112.85511 | 31940 ft | 452 kts | 313° |
| 2026-04-30 21:16 | 26.60870 | -112.89544 | 31946 ft | 453 kts | 313° |
| 2026-04-30 21:17 | 26.66010 | -112.93565 | 31936 ft | 453 kts | 313° |
| 2026-04-30 21:17 | 26.71172 | -112.97606 | 31936 ft | 453 kts | 313° |
| 2026-04-30 21:18 | 26.76335 | -113.01653 | 31944 ft | 453 kts | 313° |
| 2026-04-30 21:18 | 26.81495 | -113.05703 | 31940 ft | 452 kts | 313° |
| 2026-04-30 21:19 | 26.86636 | -113.09740 | 31947 ft | 451 kts | 313° |
| 2026-04-30 21:19 | 26.91767 | -113.13776 | 31946 ft | 450 kts | 313° |
| 2026-04-30 21:20 | 26.96884 | -113.17807 | 31945 ft | 449 kts | 313° |
| 2026-04-30 21:20 | 27.01964 | -113.21814 | 31949 ft | 449 kts | 312° |
| 2026-04-30 21:21 | 27.07071 | -113.25845 | 31951 ft | 449 kts | 312° |
| 2026-04-30 21:22 | 27.14757 | -113.31922 | 31959 ft | 450 kts | 312° |
| 2026-04-30 21:23 | 27.25010 | -113.40044 | 31963 ft | 452 kts | 312° |
| 2026-04-30 21:23 | 27.32695 | -113.46143 | 31976 ft | 452 kts | 312° |
| 2026-04-30 21:24 | 27.37836 | -113.50228 | 31976 ft | 453 kts | 312° |
| 2026-04-30 21:24 | 27.42982 | -113.54323 | 31980 ft | 453 kts | 312° |
| 2026-04-30 21:25 | 27.50674 | -113.60451 | 31985 ft | 453 kts | 312° |
| 2026-04-30 21:26 | 27.58378 | -113.66601 | 31978 ft | 452 kts | 311° |
| 2026-04-30 21:27 | 27.66073 | -113.72754 | 31969 ft | 451 kts | 311° |
| 2026-04-30 21:27 | 27.71193 | -113.76855 | 31978 ft | 451 kts | 312° |
| 2026-04-30 21:28 | 27.78870 | -113.83012 | 31984 ft | 451 kts | 312° |
| 2026-04-30 21:29 | 27.86543 | -113.89179 | 31980 ft | 451 kts | 312° |
| 2026-04-30 21:30 | 27.99320 | -113.99470 | 31982 ft | 453 kts | 312° |
| 2026-04-30 21:31 | 28.12436 | -114.09533 | 31985 ft | 458 kts | 315° |
| 2026-04-30 21:32 | 28.20440 | -114.15452 | 31985 ft | 458 kts | 314° |
| 2026-04-30 21:32 | 28.25759 | -114.19426 | 31997 ft | 457 kts | 314° |
| 2026-04-30 21:33 | 28.33720 | -114.25400 | 31985 ft | 457 kts | 314° |
| 2026-04-30 21:34 | 28.39028 | -114.29389 | 31982 ft | 457 kts | 314° |
| 2026-04-30 21:34 | 28.46978 | -114.35371 | 31986 ft | 457 kts | 314° |
| 2026-04-30 21:35 | 28.52243 | -114.39339 | 31983 ft | 457 kts | 314° |
| 2026-04-30 21:35 | 28.57538 | -114.43334 | 31979 ft | 457 kts | 314° |
| 2026-04-30 21:36 | 28.62836 | -114.47337 | 31978 ft | 457 kts | 314° |
| 2026-04-30 21:37 | 28.73448 | -114.55369 | 31975 ft | 458 kts | 314° |
| 2026-04-30 21:37 | 28.78751 | -114.59389 | 31978 ft | 458 kts | 314° |
| 2026-04-30 21:38 | 28.84052 | -114.63413 | 31981 ft | 458 kts | 314° |
| 2026-04-30 21:38 | 28.88469 | -114.66770 | 31974 ft | 458 kts | 314° |
| 2026-04-30 21:39 | 28.94631 | -114.71459 | 31968 ft | 457 kts | 314° |
| 2026-04-30 21:39 | 28.99918 | -114.75487 | 31965 ft | 456 kts | 314° |
| 2026-04-30 21:40 | 29.05198 | -114.79515 | 31962 ft | 456 kts | 314° |
| 2026-04-30 21:40 | 29.10473 | -114.83547 | 31965 ft | 455 kts | 314° |
| 2026-04-30 21:41 | 29.15699 | -114.87543 | 31964 ft | 454 kts | 314° |
| 2026-04-30 21:41 | 29.20948 | -114.91567 | 31960 ft | 454 kts | 314° |
| 2026-04-30 21:42 | 29.26199 | -114.95605 | 31953 ft | 454 kts | 315° |
| 2026-04-30 21:42 | 29.31454 | -114.99643 | 31957 ft | 454 kts | 315° |
| 2026-04-30 21:43 | 29.35821 | -115.03001 | 31958 ft | 455 kts | 315° |
| 2026-04-30 21:43 | 29.41972 | -115.07734 | 31953 ft | 456 kts | 316° |
| 2026-04-30 21:44 | 29.47240 | -115.11795 | 31954 ft | 457 kts | 316° |
| 2026-04-30 21:44 | 29.52488 | -115.15845 | 31955 ft | 458 kts | 317° |
| 2026-04-30 21:45 | 29.57784 | -115.19931 | 31955 ft | 459 kts | 317° |
| 2026-04-30 21:45 | 29.63084 | -115.24022 | 31948 ft | 459 kts | 318° |
| 2026-04-30 21:46 | 29.68387 | -115.28127 | 31941 ft | 459 kts | 318° |
| 2026-04-30 21:46 | 29.73685 | -115.32236 | 31951 ft | 459 kts | 319° |
| 2026-04-30 21:47 | 29.78982 | -115.36351 | 31945 ft | 459 kts | 319° |
| 2026-04-30 21:47 | 29.84271 | -115.40464 | 31950 ft | 458 kts | 319° |
| 2026-04-30 21:48 | 29.89515 | -115.44547 | 31939 ft | 457 kts | 320° |
| 2026-04-30 21:48 | 29.94784 | -115.48655 | 31951 ft | 456 kts | 320° |
| 2026-04-30 21:49 | 29.99181 | -115.52087 | 31949 ft | 455 kts | 320° |
| 2026-04-30 21:49 | 30.04393 | -115.56160 | 31949 ft | 454 kts | 321° |
| 2026-04-30 21:50 | 30.09625 | -115.60256 | 31950 ft | 453 kts | 321° |
| 2026-04-30 21:50 | 30.14833 | -115.64336 | 31947 ft | 452 kts | 321° |
| 2026-04-30 21:51 | 30.20014 | -115.68402 | 31960 ft | 450 kts | 322° |
| 2026-04-30 21:51 | 30.25196 | -115.72473 | 31963 ft | 449 kts | 322° |
| 2026-04-30 21:52 | 30.30364 | -115.76539 | 31961 ft | 448 kts | 322° |
| 2026-04-30 21:52 | 30.35518 | -115.80599 | 31961 ft | 448 kts | 323° |
| 2026-04-30 21:53 | 30.40659 | -115.84654 | 31963 ft | 447 kts | 323° |
| 2026-04-30 21:53 | 30.45759 | -115.88683 | 31967 ft | 446 kts | 323° |
| 2026-04-30 21:54 | 30.50883 | -115.92735 | 31966 ft | 445 kts | 324° |
| 2026-04-30 21:54 | 30.56046 | -115.96695 | 31969 ft | 445 kts | 328° |
| 2026-04-30 21:55 | 30.61420 | -116.00247 | 31976 ft | 444 kts | 329° |
| 2026-04-30 21:55 | 30.66825 | -116.03725 | 31969 ft | 443 kts | 330° |
| 2026-04-30 21:56 | 30.72165 | -116.07196 | 31973 ft | 442 kts | 330° |
| 2026-04-30 21:56 | 30.77515 | -116.10705 | 31971 ft | 441 kts | 330° |
| 2026-04-30 21:57 | 30.82846 | -116.14218 | 31974 ft | 440 kts | 330° |
| 2026-04-30 21:57 | 30.88160 | -116.17725 | 31974 ft | 438 kts | 330° |
| 2026-04-30 21:58 | 30.93454 | -116.21226 | 31968 ft | 437 kts | 331° |
| 2026-04-30 21:58 | 30.98697 | -116.24693 | 31974 ft | 435 kts | 331° |
| 2026-04-30 21:59 | 31.03956 | -116.28175 | 31970 ft | 434 kts | 332° |
| 2026-04-30 22:00 | 31.11811 | -116.33385 | 31968 ft | 432 kts | 332° |
| 2026-04-30 22:00 | 31.19625 | -116.38578 | 31970 ft | 429 kts | 332° |
| 2026-04-30 22:01 | 31.24804 | -116.42026 | 31973 ft | 428 kts | 333° |
| 2026-04-30 22:01 | 31.29961 | -116.45463 | 31975 ft | 426 kts | 333° |
| 2026-04-30 22:02 | 31.35064 | -116.48868 | 31972 ft | 424 kts | 333° |
| 2026-04-30 22:02 | 31.40179 | -116.52270 | 31983 ft | 421 kts | 334° |
| 2026-04-30 22:03 | 31.45175 | -116.55616 | 31974 ft | 421 kts | 334° |
| 2026-04-30 22:03 | 31.50250 | -116.59025 | 31971 ft | 420 kts | 334° |
| 2026-04-30 22:04 | 31.55307 | -116.62424 | 31980 ft | 419 kts | 334° |
| 2026-04-30 22:05 | 31.62858 | -116.67493 | 31973 ft | 418 kts | 334° |
| 2026-04-30 22:05 | 31.67904 | -116.70887 | 31961 ft | 418 kts | 334° |
| 2026-04-30 22:06 | 31.72948 | -116.74285 | 31977 ft | 418 kts | 334° |
| 2026-04-30 22:06 | 31.80517 | -116.79391 | 31965 ft | 419 kts | 333° |
| 2026-04-30 22:07 | 31.85573 | -116.82808 | 31959 ft | 419 kts | 333° |
| 2026-04-30 22:07 | 31.90601 | -116.86211 | 31952 ft | 420 kts | 333° |
| 2026-04-30 22:08 | 31.95670 | -116.89646 | 31960 ft | 421 kts | 333° |
| 2026-04-30 22:08 | 32.00758 | -116.93097 | 31952 ft | 422 kts | 332° |
| 2026-04-30 22:09 | 32.05860 | -116.96563 | 31956 ft | 424 kts | 332° |
| 2026-04-30 22:09 | 32.10110 | -116.99453 | 31951 ft | 425 kts | 332° |
| 2026-04-30 22:10 | 32.15064 | -117.02827 | 31970 ft | 426 kts | 332° |
| 2026-04-30 22:10 | 32.20182 | -117.06316 | 31962 ft | 428 kts | 331° |
| 2026-04-30 22:11 | 32.27935 | -117.11613 | 31963 ft | 430 kts | 331° |
| 2026-04-30 22:12 | 32.33118 | -117.15159 | 31979 ft | 431 kts | 330° |
| 2026-04-30 22:12 | 32.38324 | -117.18726 | 31981 ft | 431 kts | 330° |
| 2026-04-30 22:13 | 32.43498 | -117.22274 | 31991 ft | 432 kts | 330° |
| 2026-04-30 22:13 | 32.48701 | -117.25847 | 31985 ft | 432 kts | 330° |
| 2026-04-30 22:14 | 32.53837 | -117.29498 | 31985 ft | 433 kts | 325° |
| 2026-04-30 22:14 | 32.58749 | -117.33656 | 31966 ft | 433 kts | 324° |
| 2026-04-30 22:15 | 32.63632 | -117.37867 | 31976 ft | 434 kts | 324° |
| 2026-04-30 22:15 | 32.68528 | -117.42068 | 31966 ft | 434 kts | 323° |
| 2026-04-30 22:16 | 32.73405 | -117.46240 | 31968 ft | 435 kts | 323° |
| 2026-04-30 22:17 | 32.83234 | -117.54649 | 31960 ft | 436 kts | 323° |
| 2026-04-30 22:17 | 32.90626 | -117.60990 | 31952 ft | 437 kts | 323° |
| 2026-04-30 22:18 | 32.98026 | -117.67353 | 31943 ft | 438 kts | 322° |
| 2026-04-30 22:19 | 33.05465 | -117.73762 | 31945 ft | 440 kts | 322° |
| 2026-04-30 22:20 | 33.12907 | -117.80188 | 31944 ft | 440 kts | 322° |
| 2026-04-30 22:20 | 33.20363 | -117.86639 | 31940 ft | 441 kts | 322° |
| 2026-04-30 22:21 | 33.25351 | -117.90848 | 31939 ft | 442 kts | 324° |
| 2026-04-30 22:21 | 33.30541 | -117.94813 | 31939 ft | 443 kts | 325° |
| 2026-04-30 22:22 | 33.35767 | -117.98747 | 31945 ft | 443 kts | 325° |
| 2026-04-30 22:22 | 33.40977 | -118.02715 | 31942 ft | 444 kts | 324° |
| 2026-04-30 22:23 | 33.46173 | -118.06705 | 31943 ft | 444 kts | 324° |
| 2026-04-30 22:23 | 33.51338 | -118.10682 | 31941 ft | 444 kts | 324° |
| 2026-04-30 22:24 | 33.56540 | -118.14693 | 31928 ft | 444 kts | 324° |
| 2026-04-30 22:24 | 33.61740 | -118.18707 | 31940 ft | 444 kts | 324° |
| 2026-04-30 22:25 | 33.66947 | -118.22733 | 31939 ft | 445 kts | 324° |
| 2026-04-30 22:25 | 33.72147 | -118.26759 | 31951 ft | 445 kts | 323° |
| 2026-04-30 22:26 | 33.79916 | -118.32785 | 31954 ft | 445 kts | 323° |
| 2026-04-30 22:27 | 33.85118 | -118.36828 | 31954 ft | 445 kts | 323° |
| 2026-04-30 22:27 | 33.93124 | -118.42498 | 31955 ft | 450 kts | 334° |
| 2026-04-30 22:28 | 33.99251 | -118.44358 | 31963 ft | 459 kts | 347° |
| 2026-04-30 22:28 | 34.02414 | -118.44875 | 31949 ft | 459 kts | 348° |
| 2026-04-30 22:29 | 34.15112 | -118.46887 | 31919 ft | 459 kts | 347° |
| 2026-04-30 22:31 | 34.37249 | -118.50638 | 31922 ft | 460 kts | 347° |
| 2026-04-30 22:32 | 34.53119 | -118.53342 | 31909 ft | 461 kts | 347° |
| 2026-04-30 22:33 | 34.69013 | -118.56061 | 31929 ft | 461 kts | 348° |
| 2026-04-30 22:35 | 34.84865 | -118.58783 | 31964 ft | 459 kts | 348° |
| 2026-04-30 22:36 | 35.00454 | -118.62190 | 32018 ft | 452 kts | 335° |
| 2026-04-30 22:37 | 35.08218 | -118.68506 | 32018 ft | 447 kts | 318° |
| 2026-04-30 22:37 | 35.10590 | -118.70962 | 32021 ft | 447 kts | 318° |
| 2026-04-30 22:38 | 35.20133 | -118.80763 | 31973 ft | 448 kts | 319° |
| 2026-04-30 22:39 | 35.27329 | -118.88076 | 31942 ft | 448 kts | 320° |
| 2026-04-30 22:40 | 35.41695 | -119.02730 | 31931 ft | 449 kts | 320° |
| 2026-04-30 22:41 | 35.49216 | -119.09574 | 31942 ft | 450 kts | 333° |
| 2026-04-30 22:41 | 35.55104 | -119.12173 | 31943 ft | 451 kts | 343° |
| 2026-04-30 22:43 | 35.73278 | -119.18406 | 31924 ft | 453 kts | 343° |
| 2026-04-30 22:44 | 35.85386 | -119.22682 | 31926 ft | 452 kts | 342° |
| 2026-04-30 22:45 | 36.03444 | -119.29085 | 31960 ft | 449 kts | 343° |
| 2026-04-30 22:47 | 36.20380 | -119.35117 | 31964 ft | 446 kts | 343° |
| 2026-04-30 22:48 | 36.32281 | -119.39372 | 31964 ft | 444 kts | 343° |
| 2026-04-30 22:49 | 36.50044 | -119.45748 | 31961 ft | 443 kts | 342° |
| 2026-04-30 22:51 | 36.67812 | -119.52156 | 31951 ft | 443 kts | 342° |
| 2026-04-30 22:52 | 36.76700 | -119.55373 | 31956 ft | 442 kts | 342° |
| 2026-04-30 22:53 | 36.88473 | -119.59647 | 31954 ft | 441 kts | 342° |
| 2026-04-30 22:53 | 36.97305 | -119.62862 | 31955 ft | 440 kts | 342° |
| 2026-04-30 22:55 | 37.11930 | -119.68203 | 31964 ft | 438 kts | 342° |
| 2026-04-30 22:56 | 37.23612 | -119.72484 | 31972 ft | 436 kts | 343° |
| 2026-04-30 22:57 | 37.38123 | -119.77822 | 31985 ft | 434 kts | 342° |
| 2026-04-30 22:58 | 37.49656 | -119.82081 | 31997 ft | 432 kts | 342° |
| 2026-04-30 22:59 | 37.66939 | -119.88487 | 31982 ft | 431 kts | 343° |